sensor_id;sensor_type;location;lat;lon;timestamp;temperature;humidity
54168;DHT22;68429;50.958;3.592;2023-12-28T00:00:42;10.10;99.90
54168;DHT22;68429;50.958;3.592;2023-12-28T00:03:07;10.10;99.90
54168;DHT22;68429;50.958;3.592;2023-12-28T00:05:33;10.10;99.90
54168;DHT22;68429;50.958;3.592;2023-12-28T00:07:59;10.10;99.90
54168;DHT22;68429;50.958;3.592;2023-12-28T00:10:26;10.10;99.90
54168;DHT22;68429;50.958;3.592;2023-12-28T00:12:51;10.10;99.90
54168;DHT22;68429;50.958;3.592;2023-12-28T00:15:17;10.10;99.90
54168;DHT22;68429;50.958;3.592;2023-12-28T00:17:43;10.10;99.90
54168;DHT22;68429;50.958;3.592;2023-12-28T00:20:09;10.00;99.90
54168;DHT22;68429;50.958;3.592;2023-12-28T00:22:35;10.10;99.90
54168;DHT22;68429;50.958;3.592;2023-12-28T00:25:03;10.10;99.90
54168;DHT22;68429;50.958;3.592;2023-12-28T00:27:29;10.00;99.90
54168;DHT22;68429;50.958;3.592;2023-12-28T00:29:54;10.10;99.90
54168;DHT22;68429;50.958;3.592;2023-12-28T00:32:20;10.00;99.90
54168;DHT22;68429;50.958;3.592;2023-12-28T00:34:46;10.00;99.90
54168;DHT22;68429;50.958;3.592;2023-12-28T00:37:11;10.00;99.90
54168;DHT22;68429;50.958;3.592;2023-12-28T00:39:37;10.00;99.90
54168;DHT22;68429;50.958;3.592;2023-12-28T00:42:04;10.00;99.90
54168;DHT22;68429;50.958;3.592;2023-12-28T00:44:29;10.00;99.90
54168;DHT22;68429;50.958;3.592;2023-12-28T00:46:55;10.10;99.90
54168;DHT22;68429;50.958;3.592;2023-12-28T00:49:21;10.10;99.90
54168;DHT22;68429;50.958;3.592;2023-12-28T00:51:46;10.00;99.90
54168;DHT22;68429;50.958;3.592;2023-12-28T00:54:12;10.00;99.90
54168;DHT22;68429;50.958;3.592;2023-12-28T00:56:37;10.00;99.90
54168;DHT22;68429;50.958;3.592;2023-12-28T00:59:03;10.00;99.90
54168;DHT22;68429;50.958;3.592;2023-12-28T01:01:29;10.00;99.90
54168;DHT22;68429;50.958;3.592;2023-12-28T01:03:57;10.00;99.90
54168;DHT22;68429;50.958;3.592;2023-12-28T01:06:23;10.00;99.90
54168;DHT22;68429;50.958;3.592;2023-12-28T01:08:54;10.00;99.90
54168;DHT22;68429;50.958;3.592;2023-12-28T01:11:20;10.00;99.90
54168;DHT22;68429;50.958;3.592;2023-12-28T01:13:45;10.00;99.90
54168;DHT22;68429;50.958;3.592;2023-12-28T01:16:14;10.00;99.90
54168;DHT22;68429;50.958;3.592;2023-12-28T01:18:40;10.00;99.90
54168;DHT22;68429;50.958;3.592;2023-12-28T01:21:06;10.00;99.90
54168;DHT22;68429;50.958;3.592;2023-12-28T01:23:32;10.00;99.90
54168;DHT22;68429;50.958;3.592;2023-12-28T01:25:59;10.00;99.90
54168;DHT22;68429;50.958;3.592;2023-12-28T01:28:24;10.10;99.90
54168;DHT22;68429;50.958;3.592;2023-12-28T01:30:50;10.10;99.90
54168;DHT22;68429;50.958;3.592;2023-12-28T01:33:16;10.10;99.90
54168;DHT22;68429;50.958;3.592;2023-12-28T01:35:42;10.10;99.90
54168;DHT22;68429;50.958;3.592;2023-12-28T01:38:08;10.20;99.90
54168;DHT22;68429;50.958;3.592;2023-12-28T01:40:33;10.20;99.90
54168;DHT22;68429;50.958;3.592;2023-12-28T01:42:59;10.20;99.90
54168;DHT22;68429;50.958;3.592;2023-12-28T01:45:25;10.20;99.90
54168;DHT22;68429;50.958;3.592;2023-12-28T01:47:52;10.30;99.90
54168;DHT22;68429;50.958;3.592;2023-12-28T01:50:19;10.20;99.90
54168;DHT22;68429;50.958;3.592;2023-12-28T01:52:46;10.20;99.90
54168;DHT22;68429;50.958;3.592;2023-12-28T01:55:13;10.30;99.90
54168;DHT22;68429;50.958;3.592;2023-12-28T01:57:39;10.20;99.90
54168;DHT22;68429;50.958;3.592;2023-12-28T02:00:05;10.20;99.90
54168;DHT22;68429;50.958;3.592;2023-12-28T02:02:32;10.20;99.90
54168;DHT22;68429;50.958;3.592;2023-12-28T02:04:58;10.20;99.90
54168;DHT22;68429;50.958;3.592;2023-12-28T02:07:24;10.20;99.90
54168;DHT22;68429;50.958;3.592;2023-12-28T02:09:51;10.20;99.90
54168;DHT22;68429;50.958;3.592;2023-12-28T02:12:16;10.30;99.90
54168;DHT22;68429;50.958;3.592;2023-12-28T02:14:42;10.20;99.90
54168;DHT22;68429;50.958;3.592;2023-12-28T02:17:17;10.30;99.90
54168;DHT22;68429;50.958;3.592;2023-12-28T02:19:56;10.20;99.90
54168;DHT22;68429;50.958;3.592;2023-12-28T02:22:26;10.20;99.90
54168;DHT22;68429;50.958;3.592;2023-12-28T02:25:06;10.30;99.90
54168;DHT22;68429;50.958;3.592;2023-12-28T02:27:33;10.20;99.90
54168;DHT22;68429;50.958;3.592;2023-12-28T02:29:59;10.20;99.90
54168;DHT22;68429;50.958;3.592;2023-12-28T02:35:23;10.10;99.90
54168;DHT22;68429;50.958;3.592;2023-12-28T02:37:52;10.10;99.90
54168;DHT22;68429;50.958;3.592;2023-12-28T02:40:18;10.00;99.90
54168;DHT22;68429;50.958;3.592;2023-12-28T02:42:44;10.10;99.90
54168;DHT22;68429;50.958;3.592;2023-12-28T02:45:10;10.10;99.90
54168;DHT22;68429;50.958;3.592;2023-12-28T02:47:36;10.10;99.90
54168;DHT22;68429;50.958;3.592;2023-12-28T02:50:02;10.10;99.90
54168;DHT22;68429;50.958;3.592;2023-12-28T02:52:28;10.10;99.90
54168;DHT22;68429;50.958;3.592;2023-12-28T02:54:53;10.10;99.90
54168;DHT22;68429;50.958;3.592;2023-12-28T02:57:19;10.10;99.90
54168;DHT22;68429;50.958;3.592;2023-12-28T02:59:45;10.00;99.90
54168;DHT22;68429;50.958;3.592;2023-12-28T03:02:11;10.00;99.90
54168;DHT22;68429;50.958;3.592;2023-12-28T03:04:36;10.10;99.90
54168;DHT22;68429;50.958;3.592;2023-12-28T03:07:02;10.10;99.90
54168;DHT22;68429;50.958;3.592;2023-12-28T03:09:28;10.10;99.90
54168;DHT22;68429;50.958;3.592;2023-12-28T03:11:53;10.10;99.90
54168;DHT22;68429;50.958;3.592;2023-12-28T03:14:19;10.10;99.90
54168;DHT22;68429;50.958;3.592;2023-12-28T03:16:46;10.10;99.90
54168;DHT22;68429;50.958;3.592;2023-12-28T03:19:12;10.10;99.90
54168;DHT22;68429;50.958;3.592;2023-12-28T03:21:41;10.10;99.90
54168;DHT22;68429;50.958;3.592;2023-12-28T03:24:07;10.10;99.90
54168;DHT22;68429;50.958;3.592;2023-12-28T03:26:37;10.00;99.90
54168;DHT22;68429;50.958;3.592;2023-12-28T03:29:03;10.00;99.90
54168;DHT22;68429;50.958;3.592;2023-12-28T03:31:28;10.10;99.90
54168;DHT22;68429;50.958;3.592;2023-12-28T03:33:54;10.00;99.90
54168;DHT22;68429;50.958;3.592;2023-12-28T03:36:20;10.00;99.90
54168;DHT22;68429;50.958;3.592;2023-12-28T03:38:45;10.10;99.90
54168;DHT22;68429;50.958;3.592;2023-12-28T03:41:18;10.10;99.90
54168;DHT22;68429;50.958;3.592;2023-12-28T03:43:44;10.10;99.90
54168;DHT22;68429;50.958;3.592;2023-12-28T03:46:10;10.20;99.90
54168;DHT22;68429;50.958;3.592;2023-12-28T03:48:36;10.30;99.90
54168;DHT22;68429;50.958;3.592;2023-12-28T03:51:03;10.40;99.90
54168;DHT22;68429;50.958;3.592;2023-12-28T03:53:28;10.40;99.90
54168;DHT22;68429;50.958;3.592;2023-12-28T03:55:54;10.30;99.90
54168;DHT22;68429;50.958;3.592;2023-12-28T03:58:20;10.40;99.90
54168;DHT22;68429;50.958;3.592;2023-12-28T04:00:45;10.40;99.90
54168;DHT22;68429;50.958;3.592;2023-12-28T04:03:11;10.40;99.90
54168;DHT22;68429;50.958;3.592;2023-12-28T04:05:37;10.50;99.90
54168;DHT22;68429;50.958;3.592;2023-12-28T04:08:02;10.50;99.90
54168;DHT22;68429;50.958;3.592;2023-12-28T04:10:31;10.50;99.90
54168;DHT22;68429;50.958;3.592;2023-12-28T04:12:57;10.50;99.90
54168;DHT22;68429;50.958;3.592;2023-12-28T04:15:25;10.50;99.90
54168;DHT22;68429;50.958;3.592;2023-12-28T04:17:50;10.50;99.90
54168;DHT22;68429;50.958;3.592;2023-12-28T04:20:16;10.40;99.90
54168;DHT22;68429;50.958;3.592;2023-12-28T04:22:42;10.30;99.90
54168;DHT22;68429;50.958;3.592;2023-12-28T04:25:10;10.30;99.90
54168;DHT22;68429;50.958;3.592;2023-12-28T04:27:39;10.30;99.90
54168;DHT22;68429;50.958;3.592;2023-12-28T04:30:07;10.20;99.90
54168;DHT22;68429;50.958;3.592;2023-12-28T04:32:32;10.20;99.90
54168;DHT22;68429;50.958;3.592;2023-12-28T04:34:58;10.20;99.90
54168;DHT22;68429;50.958;3.592;2023-12-28T04:37:24;10.20;99.90
54168;DHT22;68429;50.958;3.592;2023-12-28T04:39:52;10.20;99.90
54168;DHT22;68429;50.958;3.592;2023-12-28T04:42:18;10.20;99.90
54168;DHT22;68429;50.958;3.592;2023-12-28T04:44:44;10.20;99.90
54168;DHT22;68429;50.958;3.592;2023-12-28T04:47:10;10.30;99.90
54168;DHT22;68429;50.958;3.592;2023-12-28T04:49:35;10.30;99.90
54168;DHT22;68429;50.958;3.592;2023-12-28T04:52:01;10.30;99.90
54168;DHT22;68429;50.958;3.592;2023-12-28T04:54:27;10.30;99.90
54168;DHT22;68429;50.958;3.592;2023-12-28T04:56:53;10.20;99.90
54168;DHT22;68429;50.958;3.592;2023-12-28T04:59:18;10.20;99.90
54168;DHT22;68429;50.958;3.592;2023-12-28T05:01:44;10.10;99.90
54168;DHT22;68429;50.958;3.592;2023-12-28T05:04:10;10.10;99.90
54168;DHT22;68429;50.958;3.592;2023-12-28T05:06:36;10.10;99.90
54168;DHT22;68429;50.958;3.592;2023-12-28T05:09:02;10.00;99.90
54168;DHT22;68429;50.958;3.592;2023-12-28T05:11:27;10.00;99.90
54168;DHT22;68429;50.958;3.592;2023-12-28T05:13:53;9.90;99.90
54168;DHT22;68429;50.958;3.592;2023-12-28T05:16:20;10.00;99.90
54168;DHT22;68429;50.958;3.592;2023-12-28T05:18:46;10.00;99.90
54168;DHT22;68429;50.958;3.592;2023-12-28T05:21:14;10.00;99.90
54168;DHT22;68429;50.958;3.592;2023-12-28T05:23:40;10.00;99.90
54168;DHT22;68429;50.958;3.592;2023-12-28T05:26:06;9.90;99.90
54168;DHT22;68429;50.958;3.592;2023-12-28T05:28:32;9.90;99.90
54168;DHT22;68429;50.958;3.592;2023-12-28T05:30:58;9.80;99.90
54168;DHT22;68429;50.958;3.592;2023-12-28T05:33:26;9.80;99.90
54168;DHT22;68429;50.958;3.592;2023-12-28T05:35:52;9.80;99.90
54168;DHT22;68429;50.958;3.592;2023-12-28T05:38:18;9.80;99.90
54168;DHT22;68429;50.958;3.592;2023-12-28T05:40:44;9.90;99.90
54168;DHT22;68429;50.958;3.592;2023-12-28T05:43:12;9.80;99.90
54168;DHT22;68429;50.958;3.592;2023-12-28T05:45:38;9.80;99.90
54168;DHT22;68429;50.958;3.592;2023-12-28T05:48:03;9.80;99.90
54168;DHT22;68429;50.958;3.592;2023-12-28T05:50:29;9.80;99.90
54168;DHT22;68429;50.958;3.592;2023-12-28T05:52:55;9.80;99.90
54168;DHT22;68429;50.958;3.592;2023-12-28T05:55:20;9.80;99.90
54168;DHT22;68429;50.958;3.592;2023-12-28T05:57:46;9.80;99.90
54168;DHT22;68429;50.958;3.592;2023-12-28T06:00:13;9.80;99.90
54168;DHT22;68429;50.958;3.592;2023-12-28T06:02:40;9.80;99.90
54168;DHT22;68429;50.958;3.592;2023-12-28T06:05:06;9.80;99.90
54168;DHT22;68429;50.958;3.592;2023-12-28T06:07:31;9.80;99.90
54168;DHT22;68429;50.958;3.592;2023-12-28T06:09:57;9.70;99.90
54168;DHT22;68429;50.958;3.592;2023-12-28T06:12:23;9.70;99.90
54168;DHT22;68429;50.958;3.592;2023-12-28T06:14:49;9.60;99.90
54168;DHT22;68429;50.958;3.592;2023-12-28T06:17:14;9.60;99.90
54168;DHT22;68429;50.958;3.592;2023-12-28T06:19:44;9.60;99.90
54168;DHT22;68429;50.958;3.592;2023-12-28T06:22:10;9.60;99.90
54168;DHT22;68429;50.958;3.592;2023-12-28T06:24:39;9.60;99.90
54168;DHT22;68429;50.958;3.592;2023-12-28T06:27:05;9.60;99.90
54168;DHT22;68429;50.958;3.592;2023-12-28T06:29:31;9.60;99.90
54168;DHT22;68429;50.958;3.592;2023-12-28T06:31:57;9.60;99.90
54168;DHT22;68429;50.958;3.592;2023-12-28T06:34:22;9.60;99.90
54168;DHT22;68429;50.958;3.592;2023-12-28T06:36:48;9.70;99.90
54168;DHT22;68429;50.958;3.592;2023-12-28T06:39:14;9.60;99.90
54168;DHT22;68429;50.958;3.592;2023-12-28T06:41:39;9.60;99.90
54168;DHT22;68429;50.958;3.592;2023-12-28T06:44:05;9.60;99.90
54168;DHT22;68429;50.958;3.592;2023-12-28T06:46:30;9.60;99.90
54168;DHT22;68429;50.958;3.592;2023-12-28T06:48:56;9.60;99.90
54168;DHT22;68429;50.958;3.592;2023-12-28T06:51:24;9.70;99.90
54168;DHT22;68429;50.958;3.592;2023-12-28T06:53:50;9.70;99.90
54168;DHT22;68429;50.958;3.592;2023-12-28T06:56:16;9.70;99.90
54168;DHT22;68429;50.958;3.592;2023-12-28T06:58:42;9.80;99.90
54168;DHT22;68429;50.958;3.592;2023-12-28T07:01:08;9.80;99.90
54168;DHT22;68429;50.958;3.592;2023-12-28T07:03:34;9.80;99.90
54168;DHT22;68429;50.958;3.592;2023-12-28T07:06:00;9.80;99.90
54168;DHT22;68429;50.958;3.592;2023-12-28T07:08:25;9.80;99.90
54168;DHT22;68429;50.958;3.592;2023-12-28T07:10:51;9.70;99.90
54168;DHT22;68429;50.958;3.592;2023-12-28T07:13:17;9.70;99.90
54168;DHT22;68429;50.958;3.592;2023-12-28T07:15:42;9.60;99.90
54168;DHT22;68429;50.958;3.592;2023-12-28T07:18:08;9.60;99.90
54168;DHT22;68429;50.958;3.592;2023-12-28T07:20:33;9.60;99.90
54168;DHT22;68429;50.958;3.592;2023-12-28T07:22:59;9.60;99.90
54168;DHT22;68429;50.958;3.592;2023-12-28T07:25:25;9.60;99.90
54168;DHT22;68429;50.958;3.592;2023-12-28T07:27:50;9.70;99.90
54168;DHT22;68429;50.958;3.592;2023-12-28T07:30:16;9.70;99.90
54168;DHT22;68429;50.958;3.592;2023-12-28T07:32:45;9.70;99.90
54168;DHT22;68429;50.958;3.592;2023-12-28T07:35:11;9.70;99.90
54168;DHT22;68429;50.958;3.592;2023-12-28T07:37:37;9.70;99.90
54168;DHT22;68429;50.958;3.592;2023-12-28T07:40:03;9.60;99.90
54168;DHT22;68429;50.958;3.592;2023-12-28T07:42:29;9.60;99.90
54168;DHT22;68429;50.958;3.592;2023-12-28T07:44:55;9.60;99.90
54168;DHT22;68429;50.958;3.592;2023-12-28T07:47:20;9.60;99.90
54168;DHT22;68429;50.958;3.592;2023-12-28T07:49:46;9.60;99.90
54168;DHT22;68429;50.958;3.592;2023-12-28T07:52:12;9.60;99.90
54168;DHT22;68429;50.958;3.592;2023-12-28T07:54:38;9.60;99.90
54168;DHT22;68429;50.958;3.592;2023-12-28T07:57:04;9.60;99.90
54168;DHT22;68429;50.958;3.592;2023-12-28T07:59:29;9.60;99.90
54168;DHT22;68429;50.958;3.592;2023-12-28T08:01:55;9.60;99.90
54168;DHT22;68429;50.958;3.592;2023-12-28T08:04:21;9.60;99.90
54168;DHT22;68429;50.958;3.592;2023-12-28T08:06:47;9.60;99.90
54168;DHT22;68429;50.958;3.592;2023-12-28T08:09:12;9.60;99.90
54168;DHT22;68429;50.958;3.592;2023-12-28T08:11:38;9.60;99.90
54168;DHT22;68429;50.958;3.592;2023-12-28T08:14:05;9.60;99.90
54168;DHT22;68429;50.958;3.592;2023-12-28T08:16:31;9.70;99.90
54168;DHT22;68429;50.958;3.592;2023-12-28T08:18:57;9.70;99.90
54168;DHT22;68429;50.958;3.592;2023-12-28T08:21:22;9.70;99.90
54168;DHT22;68429;50.958;3.592;2023-12-28T08:23:48;9.80;99.90
54168;DHT22;68429;50.958;3.592;2023-12-28T08:26:13;9.80;99.90
54168;DHT22;68429;50.958;3.592;2023-12-28T08:28:39;9.90;99.90
54168;DHT22;68429;50.958;3.592;2023-12-28T08:31:05;9.90;99.90
54168;DHT22;68429;50.958;3.592;2023-12-28T08:33:32;10.10;99.90
54168;DHT22;68429;50.958;3.592;2023-12-28T08:35:58;10.20;99.90
54168;DHT22;68429;50.958;3.592;2023-12-28T08:38:25;10.30;99.90
54168;DHT22;68429;50.958;3.592;2023-12-28T08:40:51;10.30;99.90
54168;DHT22;68429;50.958;3.592;2023-12-28T08:43:16;10.40;99.90
54168;DHT22;68429;50.958;3.592;2023-12-28T08:45:42;10.40;99.90
54168;DHT22;68429;50.958;3.592;2023-12-28T08:48:07;10.40;99.90
54168;DHT22;68429;50.958;3.592;2023-12-28T08:50:33;10.30;99.90
54168;DHT22;68429;50.958;3.592;2023-12-28T08:52:59;10.20;99.90
54168;DHT22;68429;50.958;3.592;2023-12-28T08:55:24;10.20;99.90
54168;DHT22;68429;50.958;3.592;2023-12-28T08:57:50;10.20;99.90
54168;DHT22;68429;50.958;3.592;2023-12-28T09:00:16;10.30;99.90
54168;DHT22;68429;50.958;3.592;2023-12-28T09:02:42;10.30;99.90
54168;DHT22;68429;50.958;3.592;2023-12-28T09:05:08;10.40;99.90
54168;DHT22;68429;50.958;3.592;2023-12-28T09:07:34;10.40;99.90
54168;DHT22;68429;50.958;3.592;2023-12-28T09:10:01;10.40;99.90
54168;DHT22;68429;50.958;3.592;2023-12-28T09:12:28;10.50;99.90
54168;DHT22;68429;50.958;3.592;2023-12-28T09:14:53;10.50;99.90
54168;DHT22;68429;50.958;3.592;2023-12-28T09:17:22;10.40;99.90
54168;DHT22;68429;50.958;3.592;2023-12-28T09:19:48;10.30;99.90
54168;DHT22;68429;50.958;3.592;2023-12-28T09:22:14;10.30;99.90
54168;DHT22;68429;50.958;3.592;2023-12-28T09:24:39;10.40;99.90
54168;DHT22;68429;50.958;3.592;2023-12-28T09:27:05;10.40;99.90
54168;DHT22;68429;50.958;3.592;2023-12-28T09:29:31;10.60;99.90
54168;DHT22;68429;50.958;3.592;2023-12-28T09:31:57;10.80;99.90
54168;DHT22;68429;50.958;3.592;2023-12-28T09:34:22;11.00;99.90
54168;DHT22;68429;50.958;3.592;2023-12-28T09:36:48;10.90;99.90
54168;DHT22;68429;50.958;3.592;2023-12-28T09:39:13;10.80;99.90
54168;DHT22;68429;50.958;3.592;2023-12-28T09:41:43;10.70;99.90
54168;DHT22;68429;50.958;3.592;2023-12-28T09:44:12;10.70;99.90
54168;DHT22;68429;50.958;3.592;2023-12-28T09:46:42;10.60;99.90
54168;DHT22;68429;50.958;3.592;2023-12-28T09:49:08;10.60;99.90
54168;DHT22;68429;50.958;3.592;2023-12-28T09:51:35;10.70;99.90
54168;DHT22;68429;50.958;3.592;2023-12-28T09:54:02;10.90;99.90
54168;DHT22;68429;50.958;3.592;2023-12-28T09:56:28;11.10;99.90
54168;DHT22;68429;50.958;3.592;2023-12-28T09:58:55;11.20;99.90
54168;DHT22;68429;50.958;3.592;2023-12-28T10:01:22;11.40;99.90
54168;DHT22;68429;50.958;3.592;2023-12-28T10:03:48;11.40;99.90
54168;DHT22;68429;50.958;3.592;2023-12-28T10:06:13;11.30;99.90
54168;DHT22;68429;50.958;3.592;2023-12-28T10:08:48;11.30;99.90
54168;DHT22;68429;50.958;3.592;2023-12-28T10:11:18;11.30;99.90
54168;DHT22;68429;50.958;3.592;2023-12-28T10:13:44;11.30;99.90
54168;DHT22;68429;50.958;3.592;2023-12-28T10:16:12;11.60;99.90
54168;DHT22;68429;50.958;3.592;2023-12-28T10:18:41;11.80;99.90
54168;DHT22;68429;50.958;3.592;2023-12-28T10:21:08;11.70;99.90
54168;DHT22;68429;50.958;3.592;2023-12-28T10:23:34;11.80;99.90
54168;DHT22;68429;50.958;3.592;2023-12-28T10:26:00;11.70;99.90
54168;DHT22;68429;50.958;3.592;2023-12-28T10:28:26;11.60;99.90
54168;DHT22;68429;50.958;3.592;2023-12-28T10:30:58;11.50;99.90
54168;DHT22;68429;50.958;3.592;2023-12-28T10:33:23;11.50;99.90
54168;DHT22;68429;50.958;3.592;2023-12-28T10:35:52;11.40;99.90
54168;DHT22;68429;50.958;3.592;2023-12-28T10:38:20;11.40;99.90
54168;DHT22;68429;50.958;3.592;2023-12-28T10:40:47;11.40;99.90
54168;DHT22;68429;50.958;3.592;2023-12-28T10:43:17;11.50;99.90
54168;DHT22;68429;50.958;3.592;2023-12-28T10:45:50;11.40;99.90
54168;DHT22;68429;50.958;3.592;2023-12-28T10:48:25;11.30;99.90
54168;DHT22;68429;50.958;3.592;2023-12-28T10:50:54;11.30;99.90
54168;DHT22;68429;50.958;3.592;2023-12-28T10:53:45;11.30;99.90
54168;DHT22;68429;50.958;3.592;2023-12-28T10:56:28;11.20;99.90
54168;DHT22;68429;50.958;3.592;2023-12-28T10:59:20;11.20;99.90
54168;DHT22;68429;50.958;3.592;2023-12-28T11:01:51;11.30;99.90
54168;DHT22;68429;50.958;3.592;2023-12-28T11:07:05;11.30;99.90
54168;DHT22;68429;50.958;3.592;2023-12-28T11:09:34;11.30;99.90
54168;DHT22;68429;50.958;3.592;2023-12-28T11:12:01;11.40;99.90
54168;DHT22;68429;50.958;3.592;2023-12-28T11:14:28;11.50;99.90
54168;DHT22;68429;50.958;3.592;2023-12-28T11:16:54;11.30;99.90
54168;DHT22;68429;50.958;3.592;2023-12-28T11:19:21;11.40;99.90
54168;DHT22;68429;50.958;3.592;2023-12-28T11:21:51;11.40;99.90
54168;DHT22;68429;50.958;3.592;2023-12-28T11:24:18;11.40;99.90
54168;DHT22;68429;50.958;3.592;2023-12-28T11:26:44;11.40;99.90
54168;DHT22;68429;50.958;3.592;2023-12-28T11:29:11;11.40;99.90
54168;DHT22;68429;50.958;3.592;2023-12-28T11:31:37;11.50;99.90
54168;DHT22;68429;50.958;3.592;2023-12-28T11:34:06;11.60;99.90
54168;DHT22;68429;50.958;3.592;2023-12-28T11:36:35;11.60;99.90
54168;DHT22;68429;50.958;3.592;2023-12-28T11:39:06;11.50;99.90
54168;DHT22;68429;50.958;3.592;2023-12-28T11:41:32;11.60;99.90
54168;DHT22;68429;50.958;3.592;2023-12-28T11:44:05;11.60;99.90
54168;DHT22;68429;50.958;3.592;2023-12-28T11:46:32;11.70;99.90
54168;DHT22;68429;50.958;3.592;2023-12-28T11:49:08;11.70;99.90
54168;DHT22;68429;50.958;3.592;2023-12-28T11:51:40;11.70;99.90
54168;DHT22;68429;50.958;3.592;2023-12-28T11:54:06;11.60;99.90
54168;DHT22;68429;50.958;3.592;2023-12-28T11:56:33;11.70;99.90
54168;DHT22;68429;50.958;3.592;2023-12-28T11:58:59;11.60;99.90
54168;DHT22;68429;50.958;3.592;2023-12-28T12:01:25;11.70;99.90
54168;DHT22;68429;50.958;3.592;2023-12-28T12:03:50;11.80;99.90
54168;DHT22;68429;50.958;3.592;2023-12-28T12:06:16;11.70;99.90
54168;DHT22;68429;50.958;3.592;2023-12-28T12:08:48;11.70;99.90
54168;DHT22;68429;50.958;3.592;2023-12-28T12:11:17;11.80;99.90
54168;DHT22;68429;50.958;3.592;2023-12-28T12:13:43;11.80;99.90
54168;DHT22;68429;50.958;3.592;2023-12-28T12:16:09;11.80;99.90
54168;DHT22;68429;50.958;3.592;2023-12-28T12:18:35;11.80;99.90
54168;DHT22;68429;50.958;3.592;2023-12-28T12:21:02;11.80;99.90
54168;DHT22;68429;50.958;3.592;2023-12-28T12:23:28;11.80;99.90
54168;DHT22;68429;50.958;3.592;2023-12-28T12:25:54;11.80;99.90
54168;DHT22;68429;50.958;3.592;2023-12-28T12:28:20;11.80;99.90
54168;DHT22;68429;50.958;3.592;2023-12-28T12:30:53;11.70;99.90
54168;DHT22;68429;50.958;3.592;2023-12-28T12:33:20;11.70;99.90
54168;DHT22;68429;50.958;3.592;2023-12-28T12:35:46;11.70;99.90
54168;DHT22;68429;50.958;3.592;2023-12-28T12:38:11;11.70;99.90
54168;DHT22;68429;50.958;3.592;2023-12-28T12:40:37;11.80;99.90
54168;DHT22;68429;50.958;3.592;2023-12-28T12:43:03;11.80;99.90
54168;DHT22;68429;50.958;3.592;2023-12-28T12:45:29;11.90;99.90
54168;DHT22;68429;50.958;3.592;2023-12-28T12:47:54;11.90;99.90
54168;DHT22;68429;50.958;3.592;2023-12-28T12:50:20;11.90;99.90
54168;DHT22;68429;50.958;3.592;2023-12-28T12:52:47;11.90;99.90
54168;DHT22;68429;50.958;3.592;2023-12-28T12:55:13;11.90;99.90
54168;DHT22;68429;50.958;3.592;2023-12-28T12:57:42;11.90;99.90
54168;DHT22;68429;50.958;3.592;2023-12-28T13:00:09;11.80;99.90
54168;DHT22;68429;50.958;3.592;2023-12-28T13:02:36;11.80;99.90
54168;DHT22;68429;50.958;3.592;2023-12-28T13:05:02;11.80;99.90
54168;DHT22;68429;50.958;3.592;2023-12-28T13:07:30;11.80;99.90
54168;DHT22;68429;50.958;3.592;2023-12-28T13:09:55;11.90;99.90
54168;DHT22;68429;50.958;3.592;2023-12-28T13:12:21;11.90;99.90
54168;DHT22;68429;50.958;3.592;2023-12-28T13:14:47;11.90;99.90
54168;DHT22;68429;50.958;3.592;2023-12-28T13:17:12;11.80;99.90
54168;DHT22;68429;50.958;3.592;2023-12-28T13:19:38;11.80;99.90
54168;DHT22;68429;50.958;3.592;2023-12-28T13:22:04;11.80;99.90
54168;DHT22;68429;50.958;3.592;2023-12-28T13:24:31;11.80;99.90
54168;DHT22;68429;50.958;3.592;2023-12-28T13:26:56;11.70;99.90
54168;DHT22;68429;50.958;3.592;2023-12-28T13:29:22;11.70;99.90
54168;DHT22;68429;50.958;3.592;2023-12-28T13:31:48;11.70;99.90
54168;DHT22;68429;50.958;3.592;2023-12-28T13:34:16;11.60;99.90
54168;DHT22;68429;50.958;3.592;2023-12-28T13:36:42;11.70;99.90
54168;DHT22;68429;50.958;3.592;2023-12-28T13:39:07;11.80;99.90
54168;DHT22;68429;50.958;3.592;2023-12-28T13:41:37;11.80;99.90
54168;DHT22;68429;50.958;3.592;2023-12-28T13:44:03;11.70;99.90
54168;DHT22;68429;50.958;3.592;2023-12-28T13:46:30;11.70;99.90
54168;DHT22;68429;50.958;3.592;2023-12-28T13:48:56;11.80;99.90
54168;DHT22;68429;50.958;3.592;2023-12-28T13:51:22;11.80;99.90
54168;DHT22;68429;50.958;3.592;2023-12-28T13:53:48;11.80;99.90
54168;DHT22;68429;50.958;3.592;2023-12-28T13:56:14;11.80;99.90
54168;DHT22;68429;50.958;3.592;2023-12-28T13:58:39;11.80;99.90
54168;DHT22;68429;50.958;3.592;2023-12-28T14:01:05;11.80;99.90
54168;DHT22;68429;50.958;3.592;2023-12-28T14:03:31;11.80;99.90
54168;DHT22;68429;50.958;3.592;2023-12-28T14:05:56;11.80;99.90
54168;DHT22;68429;50.958;3.592;2023-12-28T14:08:22;11.80;99.90
54168;DHT22;68429;50.958;3.592;2023-12-28T14:10:48;11.80;99.90
54168;DHT22;68429;50.958;3.592;2023-12-28T14:13:13;11.80;99.90
54168;DHT22;68429;50.958;3.592;2023-12-28T14:15:39;11.70;99.90
54168;DHT22;68429;50.958;3.592;2023-12-28T14:18:05;11.60;99.90
54168;DHT22;68429;50.958;3.592;2023-12-28T14:20:32;11.50;99.90
54168;DHT22;68429;50.958;3.592;2023-12-28T14:22:58;11.50;99.90
54168;DHT22;68429;50.958;3.592;2023-12-28T14:25:24;11.50;99.90
54168;DHT22;68429;50.958;3.592;2023-12-28T14:27:50;11.50;99.90
54168;DHT22;68429;50.958;3.592;2023-12-28T14:30:17;11.50;99.90
54168;DHT22;68429;50.958;3.592;2023-12-28T14:32:43;11.50;99.90
54168;DHT22;68429;50.958;3.592;2023-12-28T14:35:09;11.40;99.90
54168;DHT22;68429;50.958;3.592;2023-12-28T14:37:35;11.40;99.90
54168;DHT22;68429;50.958;3.592;2023-12-28T14:40:00;11.40;99.90
54168;DHT22;68429;50.958;3.592;2023-12-28T14:42:34;11.30;99.90
54168;DHT22;68429;50.958;3.592;2023-12-28T14:45:00;11.40;99.90
54168;DHT22;68429;50.958;3.592;2023-12-28T14:47:29;11.40;99.90
54168;DHT22;68429;50.958;3.592;2023-12-28T14:49:54;11.40;99.90
54168;DHT22;68429;50.958;3.592;2023-12-28T14:52:22;11.40;99.90
54168;DHT22;68429;50.958;3.592;2023-12-28T14:54:48;11.30;99.90
54168;DHT22;68429;50.958;3.592;2023-12-28T14:57:16;11.30;99.90
54168;DHT22;68429;50.958;3.592;2023-12-28T14:59:41;11.30;99.90
54168;DHT22;68429;50.958;3.592;2023-12-28T15:02:07;11.30;99.90
54168;DHT22;68429;50.958;3.592;2023-12-28T15:04:33;11.30;99.90
54168;DHT22;68429;50.958;3.592;2023-12-28T15:06:59;11.40;99.90
54168;DHT22;68429;50.958;3.592;2023-12-28T15:09:25;11.30;99.90
54168;DHT22;68429;50.958;3.592;2023-12-28T15:11:51;11.30;99.90
54168;DHT22;68429;50.958;3.592;2023-12-28T15:14:17;11.30;99.90
54168;DHT22;68429;50.958;3.592;2023-12-28T15:16:43;11.30;99.90
54168;DHT22;68429;50.958;3.592;2023-12-28T15:19:09;11.30;99.90
54168;DHT22;68429;50.958;3.592;2023-12-28T15:21:35;11.20;99.90
54168;DHT22;68429;50.958;3.592;2023-12-28T15:24:02;11.20;99.90
54168;DHT22;68429;50.958;3.592;2023-12-28T15:26:27;11.20;99.90
54168;DHT22;68429;50.958;3.592;2023-12-28T15:28:53;11.20;99.90
54168;DHT22;68429;50.958;3.592;2023-12-28T15:31:19;11.10;99.90
54168;DHT22;68429;50.958;3.592;2023-12-28T15:33:44;11.10;99.90
54168;DHT22;68429;50.958;3.592;2023-12-28T15:36:10;11.00;99.90